Terminal Aerodrome Forecast
Issued by NWS

Home | Current Version | Previous Version | Text Only | Print | Product List | Glossary On
Versions: 1 2 3 4 5 6 7 8 9 10 11 12 13 14 15 16
000
FTUS43 KGRB 180520
TAFATW
TAF
KATW 180520Z 1806/1906 01004KT P6SM BKN040
     FM181300 03009KT P6SM BKN027
     FM181500 04012KT P6SM OVC014
     FM181700 03014G19KT P6SM OVC012
     FM190100 03015KT P6SM SCT012=

USA.gov is the U.S. government's official web portal to all federal, state and local government web resources and services.